Terminal Aerodrome Forecast
Issued by NWS

Home | Current Version | Previous Version | Text Only | Print | Product List | Glossary On
Versions: 1 2 3 4 5 6 7 8 9 10 11 12 13 14
516
FTUS44 KLZK 301130
TAFLIT
TAF
KLIT 301130Z 3012/3112 34005KT P6SM SCT250
      TEMPO 3012/3013 5SM BR
     FM301500 05005KT P6SM FEW050 SCT250
     FM301900 08007KT P6SM SCT050 BKN250
     FM302100 09008KT P6SM VCTS SCT050CB SCT100 BKN250=

USA.gov is the U.S. government's official web portal to all federal, state and local government web resources and services.